sensor_id;sensor_type;location;lat;lon;timestamp;temperature;humidity
49829;DHT22;35723;51.194;5.112;2024-02-26T00:00:38;8.80;99.90
49829;DHT22;35723;51.194;5.112;2024-02-26T00:03:04;9.00;99.90
49829;DHT22;35723;51.194;5.112;2024-02-26T00:05:30;9.00;99.90
49829;DHT22;35723;51.194;5.112;2024-02-26T00:07:56;8.80;99.90
49829;DHT22;35723;51.194;5.112;2024-02-26T00:10:22;8.60;99.90
49829;DHT22;35723;51.194;5.112;2024-02-26T00:12:48;8.40;99.90
49829;DHT22;35723;51.194;5.112;2024-02-26T00:15:13;8.30;99.90
49829;DHT22;35723;51.194;5.112;2024-02-26T00:17:39;8.30;99.90
49829;DHT22;35723;51.194;5.112;2024-02-26T00:20:06;8.40;99.90
49829;DHT22;35723;51.194;5.112;2024-02-26T00:22:35;8.30;99.90
49829;DHT22;35723;51.194;5.112;2024-02-26T00:25:01;8.40;99.90
49829;DHT22;35723;51.194;5.112;2024-02-26T00:27:26;8.50;99.90
49829;DHT22;35723;51.194;5.112;2024-02-26T00:29:52;8.40;99.90
49829;DHT22;35723;51.194;5.112;2024-02-26T00:32:18;8.40;99.90
49829;DHT22;35723;51.194;5.112;2024-02-26T00:34:43;8.30;99.90
49829;DHT22;35723;51.194;5.112;2024-02-26T00:37:09;8.10;99.90
49829;DHT22;35723;51.194;5.112;2024-02-26T00:39:35;8.00;99.90
49829;DHT22;35723;51.194;5.112;2024-02-26T00:42:00;8.00;99.90
49829;DHT22;35723;51.194;5.112;2024-02-26T00:44:26;8.00;99.90
49829;DHT22;35723;51.194;5.112;2024-02-26T00:47:12;7.90;99.90
49829;DHT22;35723;51.194;5.112;2024-02-26T00:49:38;7.80;99.90
49829;DHT22;35723;51.194;5.112;2024-02-26T00:52:03;7.70;99.90
49829;DHT22;35723;51.194;5.112;2024-02-26T00:54:29;7.60;99.90
49829;DHT22;35723;51.194;5.112;2024-02-26T00:57:28;7.90;99.90
49829;DHT22;35723;51.194;5.112;2024-02-26T00:59:54;7.90;99.90
49829;DHT22;35723;51.194;5.112;2024-02-26T01:02:22;7.90;99.90
49829;DHT22;35723;51.194;5.112;2024-02-26T01:04:47;8.00;99.90
49829;DHT22;35723;51.194;5.112;2024-02-26T01:07:13;8.00;99.90
49829;DHT22;35723;51.194;5.112;2024-02-26T01:09:39;8.00;99.90
49829;DHT22;35723;51.194;5.112;2024-02-26T01:12:36;7.80;99.90
49829;DHT22;35723;51.194;5.112;2024-02-26T01:15:03;8.00;99.90
49829;DHT22;35723;51.194;5.112;2024-02-26T01:17:29;8.20;99.90
49829;DHT22;35723;51.194;5.112;2024-02-26T01:19:54;8.00;99.90
49829;DHT22;35723;51.194;5.112;2024-02-26T01:22:39;7.80;99.90
49829;DHT22;35723;51.194;5.112;2024-02-26T01:25:06;7.60;99.90
49829;DHT22;35723;51.194;5.112;2024-02-26T01:27:33;7.50;99.90
49829;DHT22;35723;51.194;5.112;2024-02-26T01:29:59;7.40;99.90
49829;DHT22;35723;51.194;5.112;2024-02-26T01:32:25;7.30;99.90
49829;DHT22;35723;51.194;5.112;2024-02-26T01:34:51;7.20;99.90
49829;DHT22;35723;51.194;5.112;2024-02-26T01:37:16;7.10;99.90
49829;DHT22;35723;51.194;5.112;2024-02-26T01:39:45;7.30;99.90
49829;DHT22;35723;51.194;5.112;2024-02-26T01:42:11;7.40;99.90
49829;DHT22;35723;51.194;5.112;2024-02-26T01:44:37;7.40;99.90
49829;DHT22;35723;51.194;5.112;2024-02-26T01:47:07;7.50;99.90
49829;DHT22;35723;51.194;5.112;2024-02-26T01:52:38;7.00;99.90
49829;DHT22;35723;51.194;5.112;2024-02-26T01:55:03;7.00;99.90
49829;DHT22;35723;51.194;5.112;2024-02-26T02:00:33;6.90;99.90
49829;DHT22;35723;51.194;5.112;2024-02-26T02:02:58;6.80;99.90
49829;DHT22;35723;51.194;5.112;2024-02-26T02:05:25;6.90;99.90
49829;DHT22;35723;51.194;5.112;2024-02-26T02:07:51;6.90;99.90
49829;DHT22;35723;51.194;5.112;2024-02-26T02:10:18;6.90;99.90
49829;DHT22;35723;51.194;5.112;2024-02-26T02:12:48;6.90;99.90
49829;DHT22;35723;51.194;5.112;2024-02-26T02:15:14;6.90;99.90
49829;DHT22;35723;51.194;5.112;2024-02-26T02:17:40;6.90;99.90
49829;DHT22;35723;51.194;5.112;2024-02-26T02:23:32;7.00;99.90
49829;DHT22;35723;51.194;5.112;2024-02-26T02:26:13;7.30;99.90
49829;DHT22;35723;51.194;5.112;2024-02-26T02:32:05;7.10;99.90
49829;DHT22;35723;51.194;5.112;2024-02-26T02:34:32;7.00;99.90
49829;DHT22;35723;51.194;5.112;2024-02-26T02:36:58;7.10;99.90
49829;DHT22;35723;51.194;5.112;2024-02-26T02:39:29;7.20;99.90
49829;DHT22;35723;51.194;5.112;2024-02-26T02:45:18;6.90;99.90
49829;DHT22;35723;51.194;5.112;2024-02-26T02:51:06;6.80;99.90
49829;DHT22;35723;51.194;5.112;2024-02-26T02:53:51;6.70;99.90
49829;DHT22;35723;51.194;5.112;2024-02-26T02:56:16;6.70;99.90
49829;DHT22;35723;51.194;5.112;2024-02-26T02:58:42;6.80;99.90
49829;DHT22;35723;51.194;5.112;2024-02-26T03:01:07;6.80;99.90
49829;DHT22;35723;51.194;5.112;2024-02-26T03:03:48;6.70;99.90
49829;DHT22;35723;51.194;5.112;2024-02-26T03:09:19;6.70;99.90
49829;DHT22;35723;51.194;5.112;2024-02-26T03:11:45;6.70;99.90
49829;DHT22;35723;51.194;5.112;2024-02-26T03:14:10;6.60;99.90
49829;DHT22;35723;51.194;5.112;2024-02-26T03:16:36;6.70;99.90
49829;DHT22;35723;51.194;5.112;2024-02-26T03:19:01;6.70;99.90
49829;DHT22;35723;51.194;5.112;2024-02-26T03:21:28;6.70;99.90
49829;DHT22;35723;51.194;5.112;2024-02-26T03:23:54;6.60;99.90
49829;DHT22;35723;51.194;5.112;2024-02-26T03:26:20;6.60;99.90
49829;DHT22;35723;51.194;5.112;2024-02-26T03:28:47;6.70;99.90
49829;DHT22;35723;51.194;5.112;2024-02-26T03:31:13;6.70;99.90
49829;DHT22;35723;51.194;5.112;2024-02-26T03:33:38;6.70;99.90
49829;DHT22;35723;51.194;5.112;2024-02-26T03:36:04;6.60;99.90
49829;DHT22;35723;51.194;5.112;2024-02-26T03:38:30;6.60;99.90
49829;DHT22;35723;51.194;5.112;2024-02-26T03:40:56;6.60;99.90
49829;DHT22;35723;51.194;5.112;2024-02-26T03:43:22;6.60;99.90
49829;DHT22;35723;51.194;5.112;2024-02-26T03:45:47;6.50;99.90
49829;DHT22;35723;51.194;5.112;2024-02-26T03:48:13;6.50;99.90
49829;DHT22;35723;51.194;5.112;2024-02-26T03:50:39;6.50;99.90
49829;DHT22;35723;51.194;5.112;2024-02-26T03:53:04;6.50;99.90
49829;DHT22;35723;51.194;5.112;2024-02-26T03:55:30;6.50;99.90
49829;DHT22;35723;51.194;5.112;2024-02-26T03:57:56;6.50;99.90
49829;DHT22;35723;51.194;5.112;2024-02-26T04:00:21;6.50;99.90
49829;DHT22;35723;51.194;5.112;2024-02-26T04:02:49;6.50;99.90
49829;DHT22;35723;51.194;5.112;2024-02-26T04:08:37;6.60;99.90
49829;DHT22;35723;51.194;5.112;2024-02-26T04:11:03;6.50;99.90
49829;DHT22;35723;51.194;5.112;2024-02-26T04:13:36;6.50;99.90
49829;DHT22;35723;51.194;5.112;2024-02-26T04:16:04;6.50;99.90
49829;DHT22;35723;51.194;5.112;2024-02-26T04:18:31;6.50;99.90
49829;DHT22;35723;51.194;5.112;2024-02-26T04:20:57;6.50;99.90
49829;DHT22;35723;51.194;5.112;2024-02-26T04:23:23;6.50;99.90
49829;DHT22;35723;51.194;5.112;2024-02-26T04:26:10;6.50;99.90
49829;DHT22;35723;51.194;5.112;2024-02-26T04:28:35;6.50;99.90
49829;DHT22;35723;51.194;5.112;2024-02-26T04:31:01;6.50;99.90
49829;DHT22;35723;51.194;5.112;2024-02-26T04:33:27;6.40;99.90
49829;DHT22;35723;51.194;5.112;2024-02-26T04:35:53;6.40;99.90
49829;DHT22;35723;51.194;5.112;2024-02-26T04:38:19;6.40;99.90
49829;DHT22;35723;51.194;5.112;2024-02-26T04:40:44;6.40;99.90
49829;DHT22;35723;51.194;5.112;2024-02-26T04:43:10;6.40;99.90
49829;DHT22;35723;51.194;5.112;2024-02-26T04:48:58;6.40;99.90
49829;DHT22;35723;51.194;5.112;2024-02-26T04:51:24;6.30;99.90
49829;DHT22;35723;51.194;5.112;2024-02-26T04:53:50;6.30;99.90
49829;DHT22;35723;51.194;5.112;2024-02-26T04:56:15;6.30;99.90
49829;DHT22;35723;51.194;5.112;2024-02-26T04:58:41;6.30;99.90
49829;DHT22;35723;51.194;5.112;2024-02-26T05:01:06;6.30;99.90
49829;DHT22;35723;51.194;5.112;2024-02-26T05:03:32;6.30;99.90
49829;DHT22;35723;51.194;5.112;2024-02-26T05:05:58;6.20;99.90
49829;DHT22;35723;51.194;5.112;2024-02-26T05:11:27;6.20;99.90
49829;DHT22;35723;51.194;5.112;2024-02-26T05:13:52;6.20;99.90
49829;DHT22;35723;51.194;5.112;2024-02-26T05:19:59;6.30;99.90
49829;DHT22;35723;51.194;5.112;2024-02-26T05:22:24;6.20;99.90
49829;DHT22;35723;51.194;5.112;2024-02-26T05:24:50;6.20;99.90
49829;DHT22;35723;51.194;5.112;2024-02-26T05:30:25;6.20;99.90
49829;DHT22;35723;51.194;5.112;2024-02-26T05:32:53;6.20;99.90
49829;DHT22;35723;51.194;5.112;2024-02-26T05:35:19;6.10;99.90
49829;DHT22;35723;51.194;5.112;2024-02-26T05:37:45;6.20;99.90
49829;DHT22;35723;51.194;5.112;2024-02-26T05:40:11;6.10;99.90
49829;DHT22;35723;51.194;5.112;2024-02-26T05:42:37;6.10;99.90
49829;DHT22;35723;51.194;5.112;2024-02-26T05:45:03;6.10;99.90
49829;DHT22;35723;51.194;5.112;2024-02-26T05:47:33;6.10;99.90
49829;DHT22;35723;51.194;5.112;2024-02-26T05:49:58;6.10;99.90
49829;DHT22;35723;51.194;5.112;2024-02-26T05:52:26;6.10;99.90
49829;DHT22;35723;51.194;5.112;2024-02-26T05:54:52;6.10;99.90
49829;DHT22;35723;51.194;5.112;2024-02-26T05:57:17;6.10;99.90
49829;DHT22;35723;51.194;5.112;2024-02-26T05:59:44;6.10;99.90
49829;DHT22;35723;51.194;5.112;2024-02-26T06:02:10;6.10;99.90
49829;DHT22;35723;51.194;5.112;2024-02-26T06:04:35;6.20;99.90
49829;DHT22;35723;51.194;5.112;2024-02-26T06:07:01;6.10;99.90
49829;DHT22;35723;51.194;5.112;2024-02-26T06:09:26;6.10;99.90
49829;DHT22;35723;51.194;5.112;2024-02-26T06:11:52;6.20;99.90
49829;DHT22;35723;51.194;5.112;2024-02-26T06:14:18;6.00;99.90
49829;DHT22;35723;51.194;5.112;2024-02-26T06:16:44;6.00;99.90
49829;DHT22;35723;51.194;5.112;2024-02-26T06:19:10;6.00;99.90
49829;DHT22;35723;51.194;5.112;2024-02-26T06:21:36;6.00;99.90
49829;DHT22;35723;51.194;5.112;2024-02-26T06:24:02;6.00;99.90
49829;DHT22;35723;51.194;5.112;2024-02-26T06:26:28;6.00;99.90
49829;DHT22;35723;51.194;5.112;2024-02-26T06:28:55;6.00;99.90
49829;DHT22;35723;51.194;5.112;2024-02-26T06:31:21;6.00;99.90
49829;DHT22;35723;51.194;5.112;2024-02-26T06:33:48;6.00;99.90
49829;DHT22;35723;51.194;5.112;2024-02-26T06:36:15;6.00;99.90
49829;DHT22;35723;51.194;5.112;2024-02-26T06:38:41;6.00;99.90
49829;DHT22;35723;51.194;5.112;2024-02-26T06:41:06;6.00;99.90
49829;DHT22;35723;51.194;5.112;2024-02-26T06:43:32;5.90;99.90
49829;DHT22;35723;51.194;5.112;2024-02-26T06:45:58;6.00;99.90
49829;DHT22;35723;51.194;5.112;2024-02-26T06:48:24;6.10;99.90
49829;DHT22;35723;51.194;5.112;2024-02-26T06:50:50;6.00;99.90
49829;DHT22;35723;51.194;5.112;2024-02-26T06:53:16;6.00;99.90
49829;DHT22;35723;51.194;5.112;2024-02-26T06:55:43;6.00;99.90
49829;DHT22;35723;51.194;5.112;2024-02-26T06:58:10;6.00;99.90
49829;DHT22;35723;51.194;5.112;2024-02-26T07:00:36;6.00;99.90
49829;DHT22;35723;51.194;5.112;2024-02-26T07:03:01;6.00;99.90
49829;DHT22;35723;51.194;5.112;2024-02-26T07:05:27;6.00;99.90
49829;DHT22;35723;51.194;5.112;2024-02-26T07:07:53;5.90;99.90
49829;DHT22;35723;51.194;5.112;2024-02-26T07:10:18;5.90;99.90
49829;DHT22;35723;51.194;5.112;2024-02-26T07:12:44;5.90;99.90
49829;DHT22;35723;51.194;5.112;2024-02-26T07:15:10;5.90;99.90
49829;DHT22;35723;51.194;5.112;2024-02-26T07:17:36;5.90;99.90
49829;DHT22;35723;51.194;5.112;2024-02-26T07:20:02;5.90;99.90
49829;DHT22;35723;51.194;5.112;2024-02-26T07:25:52;5.90;99.90
49829;DHT22;35723;51.194;5.112;2024-02-26T07:28:19;6.00;99.90
49829;DHT22;35723;51.194;5.112;2024-02-26T07:30:45;6.00;99.90
49829;DHT22;35723;51.194;5.112;2024-02-26T07:33:10;5.90;99.90
49829;DHT22;35723;51.194;5.112;2024-02-26T07:35:36;5.90;99.90
49829;DHT22;35723;51.194;5.112;2024-02-26T07:38:04;5.90;99.90
49829;DHT22;35723;51.194;5.112;2024-02-26T07:40:30;6.00;99.90
49829;DHT22;35723;51.194;5.112;2024-02-26T07:42:56;5.90;99.90
49829;DHT22;35723;51.194;5.112;2024-02-26T07:45:22;5.90;99.90
49829;DHT22;35723;51.194;5.112;2024-02-26T07:47:48;5.90;99.90
49829;DHT22;35723;51.194;5.112;2024-02-26T07:50:15;6.00;99.90
49829;DHT22;35723;51.194;5.112;2024-02-26T07:52:43;6.00;99.90
49829;DHT22;35723;51.194;5.112;2024-02-26T07:55:10;6.00;99.90
49829;DHT22;35723;51.194;5.112;2024-02-26T07:57:36;6.00;99.90
49829;DHT22;35723;51.194;5.112;2024-02-26T08:00:02;5.90;99.90
49829;DHT22;35723;51.194;5.112;2024-02-26T08:02:28;6.00;99.90
49829;DHT22;35723;51.194;5.112;2024-02-26T08:04:54;5.90;99.90
49829;DHT22;35723;51.194;5.112;2024-02-26T08:07:20;6.10;99.90
49829;DHT22;35723;51.194;5.112;2024-02-26T08:09:55;6.00;99.90
49829;DHT22;35723;51.194;5.112;2024-02-26T08:12:21;6.00;99.90
49829;DHT22;35723;51.194;5.112;2024-02-26T08:14:47;6.00;99.90
49829;DHT22;35723;51.194;5.112;2024-02-26T08:17:12;6.10;99.90
49829;DHT22;35723;51.194;5.112;2024-02-26T08:19:38;6.00;99.90
49829;DHT22;35723;51.194;5.112;2024-02-26T08:22:04;6.00;99.90
49829;DHT22;35723;51.194;5.112;2024-02-26T08:24:30;6.00;99.90
49829;DHT22;35723;51.194;5.112;2024-02-26T08:27:06;5.90;99.90
49829;DHT22;35723;51.194;5.112;2024-02-26T08:29:32;6.00;99.90
49829;DHT22;35723;51.194;5.112;2024-02-26T08:31:57;6.00;99.90
49829;DHT22;35723;51.194;5.112;2024-02-26T08:34:23;6.00;99.90
49829;DHT22;35723;51.194;5.112;2024-02-26T08:36:49;6.00;99.90
49829;DHT22;35723;51.194;5.112;2024-02-26T08:39:16;5.90;99.90
49829;DHT22;35723;51.194;5.112;2024-02-26T08:41:45;5.90;99.90
49829;DHT22;35723;51.194;5.112;2024-02-26T08:44:11;5.90;99.90
49829;DHT22;35723;51.194;5.112;2024-02-26T08:46:37;5.90;99.90
49829;DHT22;35723;51.194;5.112;2024-02-26T08:49:03;5.90;99.90
49829;DHT22;35723;51.194;5.112;2024-02-26T08:51:29;5.80;99.90
49829;DHT22;35723;51.194;5.112;2024-02-26T08:53:54;5.90;99.90
49829;DHT22;35723;51.194;5.112;2024-02-26T09:04:06;6.90;99.90
49829;DHT22;35723;51.194;5.112;2024-02-26T09:06:32;7.00;99.90
49829;DHT22;35723;51.194;5.112;2024-02-26T09:08:57;6.50;99.90
49829;DHT22;35723;51.194;5.112;2024-02-26T09:11:23;6.20;99.90
49829;DHT22;35723;51.194;5.112;2024-02-26T09:13:48;6.10;99.90
49829;DHT22;35723;51.194;5.112;2024-02-26T09:16:14;6.00;99.90
49829;DHT22;35723;51.194;5.112;2024-02-26T09:21:44;5.90;99.90
49829;DHT22;35723;51.194;5.112;2024-02-26T09:24:11;5.90;99.90
49829;DHT22;35723;51.194;5.112;2024-02-26T09:26:37;5.90;99.90
49829;DHT22;35723;51.194;5.112;2024-02-26T09:29:03;5.80;99.90
49829;DHT22;35723;51.194;5.112;2024-02-26T09:31:30;5.80;99.90
49829;DHT22;35723;51.194;5.112;2024-02-26T09:33:55;5.90;99.90
49829;DHT22;35723;51.194;5.112;2024-02-26T09:36:21;5.80;99.90
49829;DHT22;35723;51.194;5.112;2024-02-26T09:38:47;5.80;99.90
49829;DHT22;35723;51.194;5.112;2024-02-26T09:41:15;5.80;99.90
49829;DHT22;35723;51.194;5.112;2024-02-26T09:43:43;5.80;99.90
49829;DHT22;35723;51.194;5.112;2024-02-26T09:46:10;5.90;99.90
49829;DHT22;35723;51.194;5.112;2024-02-26T09:48:37;5.80;99.90
49829;DHT22;35723;51.194;5.112;2024-02-26T09:51:03;5.80;99.90
49829;DHT22;35723;51.194;5.112;2024-02-26T09:53:30;5.80;99.90
49829;DHT22;35723;51.194;5.112;2024-02-26T09:56:00;5.80;99.90
49829;DHT22;35723;51.194;5.112;2024-02-26T09:58:28;5.70;99.90
49829;DHT22;35723;51.194;5.112;2024-02-26T10:00:56;5.80;99.90
49829;DHT22;35723;51.194;5.112;2024-02-26T10:06:37;5.70;99.90
49829;DHT22;35723;51.194;5.112;2024-02-26T10:09:04;5.70;99.90
49829;DHT22;35723;51.194;5.112;2024-02-26T10:11:32;5.70;99.90
49829;DHT22;35723;51.194;5.112;2024-02-26T10:13:58;5.70;99.90
49829;DHT22;35723;51.194;5.112;2024-02-26T10:16:25;5.70;99.90
49829;DHT22;35723;51.194;5.112;2024-02-26T10:18:52;5.60;99.90
49829;DHT22;35723;51.194;5.112;2024-02-26T10:21:22;5.60;99.90
49829;DHT22;35723;51.194;5.112;2024-02-26T10:23:50;5.60;99.90
49829;DHT22;35723;51.194;5.112;2024-02-26T10:26:19;5.60;99.90
49829;DHT22;35723;51.194;5.112;2024-02-26T10:28:46;5.60;99.90
49829;DHT22;35723;51.194;5.112;2024-02-26T10:31:14;5.60;99.90
49829;DHT22;35723;51.194;5.112;2024-02-26T10:33:41;5.70;99.90
49829;DHT22;35723;51.194;5.112;2024-02-26T10:36:08;5.80;99.90
49829;DHT22;35723;51.194;5.112;2024-02-26T10:38:35;5.70;99.90
49829;DHT22;35723;51.194;5.112;2024-02-26T10:41:09;5.70;99.90
49829;DHT22;35723;51.194;5.112;2024-02-26T10:43:38;5.70;99.90
49829;DHT22;35723;51.194;5.112;2024-02-26T10:46:03;5.70;99.90
49829;DHT22;35723;51.194;5.112;2024-02-26T10:48:30;5.60;99.90
49829;DHT22;35723;51.194;5.112;2024-02-26T10:50:57;5.70;99.90
49829;DHT22;35723;51.194;5.112;2024-02-26T10:56:57;5.70;99.90
49829;DHT22;35723;51.194;5.112;2024-02-26T10:59:26;5.70;99.90
49829;DHT22;35723;51.194;5.112;2024-02-26T11:01:52;5.70;99.90
49829;DHT22;35723;51.194;5.112;2024-02-26T11:07:41;5.80;99.90
49829;DHT22;35723;51.194;5.112;2024-02-26T11:10:07;5.70;99.90
49829;DHT22;35723;51.194;5.112;2024-02-26T11:12:35;5.80;99.90
49829;DHT22;35723;51.194;5.112;2024-02-26T11:15:03;5.90;99.90
49829;DHT22;35723;51.194;5.112;2024-02-26T11:17:29;5.80;99.90
49829;DHT22;35723;51.194;5.112;2024-02-26T11:19:59;5.80;99.90
49829;DHT22;35723;51.194;5.112;2024-02-26T11:22:25;5.90;99.90
49829;DHT22;35723;51.194;5.112;2024-02-26T11:24:55;5.80;99.90
49829;DHT22;35723;51.194;5.112;2024-02-26T11:27:54;5.90;99.90
49829;DHT22;35723;51.194;5.112;2024-02-26T11:30:21;5.90;99.90
49829;DHT22;35723;51.194;5.112;2024-02-26T11:32:48;5.80;99.90
49829;DHT22;35723;51.194;5.112;2024-02-26T11:35:14;5.90;99.90
49829;DHT22;35723;51.194;5.112;2024-02-26T11:37:54;5.90;99.90
49829;DHT22;35723;51.194;5.112;2024-02-26T11:40:23;5.90;99.90
49829;DHT22;35723;51.194;5.112;2024-02-26T11:42:49;5.80;99.90
49829;DHT22;35723;51.194;5.112;2024-02-26T11:48:12;5.80;99.90
49829;DHT22;35723;51.194;5.112;2024-02-26T11:50:52;5.80;99.90
49829;DHT22;35723;51.194;5.112;2024-02-26T11:53:28;5.80;99.90
49829;DHT22;35723;51.194;5.112;2024-02-26T11:59:12;5.80;99.90
49829;DHT22;35723;51.194;5.112;2024-02-26T12:01:45;5.80;99.90
49829;DHT22;35723;51.194;5.112;2024-02-26T12:04:30;5.80;99.90
49829;DHT22;35723;51.194;5.112;2024-02-26T12:06:57;5.80;99.90
49829;DHT22;35723;51.194;5.112;2024-02-26T12:09:32;5.70;99.90
49829;DHT22;35723;51.194;5.112;2024-02-26T12:12:00;5.70;99.90
49829;DHT22;35723;51.194;5.112;2024-02-26T12:14:26;5.80;99.90
49829;DHT22;35723;51.194;5.112;2024-02-26T12:16:52;5.80;99.90
49829;DHT22;35723;51.194;5.112;2024-02-26T12:19:23;5.70;99.90
49829;DHT22;35723;51.194;5.112;2024-02-26T12:21:53;5.70;99.90
49829;DHT22;35723;51.194;5.112;2024-02-26T12:24:21;5.70;99.90
49829;DHT22;35723;51.194;5.112;2024-02-26T12:26:47;5.80;99.90
49829;DHT22;35723;51.194;5.112;2024-02-26T12:29:13;5.70;99.90
49829;DHT22;35723;51.194;5.112;2024-02-26T12:31:40;5.70;99.90
49829;DHT22;35723;51.194;5.112;2024-02-26T12:34:06;5.90;99.90
49829;DHT22;35723;51.194;5.112;2024-02-26T12:36:33;5.70;99.90
49829;DHT22;35723;51.194;5.112;2024-02-26T12:39:00;5.70;99.90
49829;DHT22;35723;51.194;5.112;2024-02-26T12:41:27;5.70;99.90
49829;DHT22;35723;51.194;5.112;2024-02-26T12:43:55;5.70;99.90
49829;DHT22;35723;51.194;5.112;2024-02-26T12:46:22;5.80;99.90
49829;DHT22;35723;51.194;5.112;2024-02-26T12:48:48;5.80;99.90
49829;DHT22;35723;51.194;5.112;2024-02-26T12:51:16;5.70;99.90
49829;DHT22;35723;51.194;5.112;2024-02-26T12:53:42;5.80;99.90
49829;DHT22;35723;51.194;5.112;2024-02-26T12:56:09;5.70;99.90
49829;DHT22;35723;51.194;5.112;2024-02-26T12:58:36;5.80;99.90
49829;DHT22;35723;51.194;5.112;2024-02-26T13:01:04;5.90;99.90
49829;DHT22;35723;51.194;5.112;2024-02-26T13:03:31;5.70;99.90
49829;DHT22;35723;51.194;5.112;2024-02-26T13:09:03;5.80;99.90
49829;DHT22;35723;51.194;5.112;2024-02-26T13:11:28;5.80;99.90
49829;DHT22;35723;51.194;5.112;2024-02-26T13:13:55;5.80;99.90
49829;DHT22;35723;51.194;5.112;2024-02-26T13:16:24;5.80;99.90
49829;DHT22;35723;51.194;5.112;2024-02-26T13:22:06;5.80;99.90
49829;DHT22;35723;51.194;5.112;2024-02-26T13:24:35;5.90;99.90
49829;DHT22;35723;51.194;5.112;2024-02-26T13:27:01;5.90;99.90
49829;DHT22;35723;51.194;5.112;2024-02-26T13:29:28;5.90;99.90
49829;DHT22;35723;51.194;5.112;2024-02-26T13:31:57;5.90;99.90
49829;DHT22;35723;51.194;5.112;2024-02-26T13:34:24;6.10;99.90
49829;DHT22;35723;51.194;5.112;2024-02-26T13:36:50;5.90;99.90
49829;DHT22;35723;51.194;5.112;2024-02-26T13:39:27;6.00;99.90
49829;DHT22;35723;51.194;5.112;2024-02-26T13:41:53;6.00;99.90
49829;DHT22;35723;51.194;5.112;2024-02-26T13:44:20;6.10;99.90
49829;DHT22;35723;51.194;5.112;2024-02-26T13:46:47;6.00;99.90
49829;DHT22;35723;51.194;5.112;2024-02-26T13:49:13;6.00;99.90
49829;DHT22;35723;51.194;5.112;2024-02-26T13:51:39;6.00;99.90
49829;DHT22;35723;51.194;5.112;2024-02-26T13:54:05;6.00;99.90
49829;DHT22;35723;51.194;5.112;2024-02-26T13:56:31;6.00;99.90
49829;DHT22;35723;51.194;5.112;2024-02-26T13:59:02;6.00;99.90
49829;DHT22;35723;51.194;5.112;2024-02-26T14:04:50;6.00;99.90
49829;DHT22;35723;51.194;5.112;2024-02-26T14:10:38;5.90;99.90
49829;DHT22;35723;51.194;5.112;2024-02-26T14:13:04;5.90;99.90
49829;DHT22;35723;51.194;5.112;2024-02-26T14:15:29;5.90;99.90
49829;DHT22;35723;51.194;5.112;2024-02-26T14:17:56;5.90;99.90
49829;DHT22;35723;51.194;5.112;2024-02-26T14:20:22;5.80;99.90
49829;DHT22;35723;51.194;5.112;2024-02-26T14:22:49;5.90;99.90
49829;DHT22;35723;51.194;5.112;2024-02-26T14:25:16;5.90;99.90
49829;DHT22;35723;51.194;5.112;2024-02-26T14:27:42;5.90;99.90
49829;DHT22;35723;51.194;5.112;2024-02-26T14:30:08;5.90;99.90
49829;DHT22;35723;51.194;5.112;2024-02-26T14:35:56;5.90;99.90
49829;DHT22;35723;51.194;5.112;2024-02-26T14:38:21;5.90;99.90
49829;DHT22;35723;51.194;5.112;2024-02-26T14:40:49;5.90;99.90
49829;DHT22;35723;51.194;5.112;2024-02-26T14:43:14;5.90;99.90
49829;DHT22;35723;51.194;5.112;2024-02-26T14:45:40;5.90;99.90
49829;DHT22;35723;51.194;5.112;2024-02-26T14:48:06;6.10;99.90
49829;DHT22;35723;51.194;5.112;2024-02-26T14:54:00;6.00;99.90
49829;DHT22;35723;51.194;5.112;2024-02-26T14:56:27;6.00;99.90
49829;DHT22;35723;51.194;5.112;2024-02-26T14:58:53;6.00;99.90
49829;DHT22;35723;51.194;5.112;2024-02-26T15:01:19;5.90;99.90
49829;DHT22;35723;51.194;5.112;2024-02-26T15:03:44;6.00;99.90
49829;DHT22;35723;51.194;5.112;2024-02-26T15:06:10;5.90;99.90
49829;DHT22;35723;51.194;5.112;2024-02-26T15:08:42;6.00;99.90
49829;DHT22;35723;51.194;5.112;2024-02-26T15:14:12;5.90;99.90
49829;DHT22;35723;51.194;5.112;2024-02-26T15:16:37;6.00;99.90
49829;DHT22;35723;51.194;5.112;2024-02-26T15:19:03;6.00;99.90
49829;DHT22;35723;51.194;5.112;2024-02-26T15:21:29;6.00;99.90
49829;DHT22;35723;51.194;5.112;2024-02-26T15:23:55;6.00;99.90
49829;DHT22;35723;51.194;5.112;2024-02-26T15:26:24;6.00;99.90
49829;DHT22;35723;51.194;5.112;2024-02-26T15:28:51;6.00;99.90
49829;DHT22;35723;51.194;5.112;2024-02-26T15:31:17;6.00;99.90
49829;DHT22;35723;51.194;5.112;2024-02-26T15:36:49;6.00;99.90
49829;DHT22;35723;51.194;5.112;2024-02-26T15:39:15;6.10;99.90
49829;DHT22;35723;51.194;5.112;2024-02-26T15:41:40;6.00;99.90
49829;DHT22;35723;51.194;5.112;2024-02-26T15:44:06;6.00;99.90
49829;DHT22;35723;51.194;5.112;2024-02-26T15:46:32;6.00;99.90
49829;DHT22;35723;51.194;5.112;2024-02-26T15:48:57;6.00;99.90
49829;DHT22;35723;51.194;5.112;2024-02-26T15:51:23;6.00;99.90
49829;DHT22;35723;51.194;5.112;2024-02-26T15:53:50;6.00;99.90
49829;DHT22;35723;51.194;5.112;2024-02-26T15:56:16;6.00;99.90
49829;DHT22;35723;51.194;5.112;2024-02-26T15:58:42;6.00;99.90
49829;DHT22;35723;51.194;5.112;2024-02-26T16:01:08;6.00;99.90
49829;DHT22;35723;51.194;5.112;2024-02-26T16:10:19;6.00;99.90
49829;DHT22;35723;51.194;5.112;2024-02-26T16:16:04;6.00;99.90
49829;DHT22;35723;51.194;5.112;2024-02-26T16:18:36;6.00;99.90
49829;DHT22;35723;51.194;5.112;2024-02-26T16:21:01;6.00;99.90
49829;DHT22;35723;51.194;5.112;2024-02-26T16:23:27;6.00;99.90
49829;DHT22;35723;51.194;5.112;2024-02-26T16:25:53;6.00;99.90
49829;DHT22;35723;51.194;5.112;2024-02-26T16:28:19;6.00;99.90
49829;DHT22;35723;51.194;5.112;2024-02-26T16:30:50;6.10;99.90
49829;DHT22;35723;51.194;5.112;2024-02-26T16:33:16;6.00;99.90
49829;DHT22;35723;51.194;5.112;2024-02-26T16:35:44;6.00;99.90
49829;DHT22;35723;51.194;5.112;2024-02-26T16:38:10;6.00;99.90
49829;DHT22;35723;51.194;5.112;2024-02-26T16:40:36;5.90;99.90
49829;DHT22;35723;51.194;5.112;2024-02-26T16:43:02;6.00;99.90
49829;DHT22;35723;51.194;5.112;2024-02-26T16:45:28;5.90;99.90
49829;DHT22;35723;51.194;5.112;2024-02-26T16:47:56;5.90;99.90
49829;DHT22;35723;51.194;5.112;2024-02-26T16:50:21;5.90;99.90
49829;DHT22;35723;51.194;5.112;2024-02-26T16:52:47;6.00;99.90
49829;DHT22;35723;51.194;5.112;2024-02-26T16:55:13;6.00;99.90
49829;DHT22;35723;51.194;5.112;2024-02-26T16:57:40;6.00;99.90
49829;DHT22;35723;51.194;5.112;2024-02-26T17:00:07;6.00;99.90
49829;DHT22;35723;51.194;5.112;2024-02-26T17:02:33;6.30;99.90
49829;DHT22;35723;51.194;5.112;2024-02-26T17:04:59;6.20;99.90
49829;DHT22;35723;51.194;5.112;2024-02-26T17:07:25;6.10;99.90
49829;DHT22;35723;51.194;5.112;2024-02-26T17:09:50;6.20;99.90
49829;DHT22;35723;51.194;5.112;2024-02-26T17:12:16;6.10;99.90
49829;DHT22;35723;51.194;5.112;2024-02-26T17:14:44;6.10;99.90
49829;DHT22;35723;51.194;5.112;2024-02-26T17:17:13;6.20;99.90
49829;DHT22;35723;51.194;5.112;2024-02-26T17:19:39;6.20;99.90
49829;DHT22;35723;51.194;5.112;2024-02-26T17:22:05;6.10;99.90
49829;DHT22;35723;51.194;5.112;2024-02-26T17:24:35;6.10;99.90
49829;DHT22;35723;51.194;5.112;2024-02-26T17:27:02;6.00;99.90
49829;DHT22;35723;51.194;5.112;2024-02-26T17:29:32;6.00;99.90